Aérodrome :
LOGIN :

S'inscrire | Disclaimer

   EN    FR    IT 

 










Légende :    VFR   VFR Marginal   IFR   IFR Intensif   IFR Très Intensif
Visi : 
Plafond : 
>= 8 km
>= 3000ft
5 à 8 km
1000 à 3000 ft
1500m à 5 km
500 à 1000 ft
800 à 1500m
200 à 500 ft
< 800m
< 200 ft
Symboles :   Orages  Brouillard  Fortes neiges  Fortes précipitations  Vent > 20 kt
SIGMETs :   Divers  Orages  Givrage  Turbulence  Onde Orograph.  Cendres Volcan.







- Altitude de l'aérodrome : 82 ft
- Code IATA : ALG


DAAG - Alger Houari Boumedienne

DERNIER METAR :
  • 200730Z 22004KT 8000 SCT023TCU 24/23 Q1020

METARs EXPIRÉS :
  • 200700Z VRB02KT 8000 FEW006 SCT023TCU 23/22 Q1019
  • 200630Z 28003KT 240V310 8000 SCT008 SCT023TCU 23/22 Q1019
  • 200600Z 29004KT 270V340 8000 SCT008 SCT023TCU 22/21 Q1019
  • 200530Z 26003KT 8000 SCT023 SCT040 22/21 Q1019
  • 200500Z 23004KT 8000 SCT023 SCT040 23/22 Q1019 RERA

TAF TAF DAAG
Valide du 20 à 06h jusqu'au 21 à 06h UTC


200500Z 2006/2106 VRB02KT 8000 SCT023 SCT040
PROB30
TEMPO 2006/2009 5000 -RA FEW020CB
BECMG 2009/2012 04010KT
BECMG 2017/2020 VRB02KT
Pas de NOTAMs connus pour ce terrain.
1 SIGMET publié pour la FIR Alger (DAAA) :
 
Orages noyés dans la masse
DAAA SIGMET 1 VALID 200500/200800 DAMM
DAAA ALGER FIR EMBD TS OBS E OF LINE N3655 E00612 - N3852 E00450 TOP FL420 MOV E NC=



MET'MAP, la Météo Aéronautique d'un coup d'oeil ! - Copyright ORBIFLY Décembre 2007 - Disclaimer

ORBIFLY MET'MAP TEAM :

Programmation & Développement : Alexandra Zaïnal
Conception & Développement : Baudouin d'Aumeries
Co-Programmation & Développement : Marc-Olivier Méhu
Soutien technique & logistique : Manuel Goepfert

Contact : metmap@orbifly.com




SOURCES & CREDITS :

   NOAA